Weather at Hurghada International Airport

Public forecast

Using degrees Celsius for public forecast. Weather courtesy of forecast.io.

Current aviation weather report (METAR) for Hurghada International Airport

Report is more than 6 hours old.

2022/11/14 15:00 (retrieved 2 years ago)

HEGN 141500Z 34011KT CAVOK 25/16 Q1014

Aviation forecast (TAF) for Hurghada International Airport

Forecast is more than 12 hours old.

2023/02/22 18:54 (retrieved 1 year ago)

TAF HEGN 221700Z 2218/2324 32014KT CAVOK